Time;durP1;ratioP1;P1;durP2;ratioP2;P2;SDS_P1;SDS_P2;PMS_P1;PMS_P2;Temp;Humidity;BMP_temperature;BMP_pressure;BME280_temperature;BME280_humidity;BME280_pressure;Samples;Min_cycle;Max_cycle;Signal;HPM_P1;HPM_P2
2022/10/13 00:00:26;;;;;;;6.63;2.60;;;;;;;7.80;100.00;101834.97;5010453;28;20230;-49
2022/10/13 00:02:53;;;;;;;7.53;2.75;;;;;;;7.82;100.00;101831.38;5024008;28;20204;-49
2022/10/13 00:05:18;;;;;;;8.15;2.50;;;;;;;7.82;100.00;101828.69;5011184;28;20179;-52
2022/10/13 00:07:44;;;;;;;11.27;3.28;;;;;;;7.81;100.00;101834.94;5011053;28;20176;-52
2022/10/13 00:10:09;;;;;;;8.80;2.78;;;;;;;7.80;100.00;101830.50;5015607;28;20747;-47
2022/10/13 00:12:36;;;;;;;8.32;2.53;;;;;;;7.83;100.00;101834.94;5013442;28;20266;-48
2022/10/13 00:15:05;;;;;;;10.77;2.67;;;;;;;7.84;100.00;101831.34;5019379;28;20234;-47
2022/10/13 00:17:31;;;;;;;9.00;3.00;;;;;;;7.87;100.00;101830.44;5015633;28;20184;-46
2022/10/13 00:19:57;;;;;;;13.05;2.95;;;;;;;7.85;100.00;101827.81;5013349;28;20612;-47
2022/10/13 00:22:22;;;;;;;10.00;2.75;;;;;;;7.80;100.00;101821.63;5018736;28;20545;-51
2022/10/13 00:24:52;;;;;;;11.60;2.83;;;;;;;7.80;100.00;101825.16;5016281;28;20183;-47
2022/10/13 00:27:18;;;;;;;8.00;2.42;;;;;;;7.83;100.00;101830.47;5010880;28;20639;-47
2022/10/13 00:29:43;;;;;;;9.38;2.65;;;;;;;7.82;100.00;101828.69;5004108;28;20188;-50
2022/10/13 00:32:09;;;;;;;9.20;2.58;;;;;;;7.83;100.00;101822.47;5010118;28;20204;-52
2022/10/13 00:34:35;;;;;;;10.25;3.15;;;;;;;7.81;100.00;101818.06;4990159;28;20184;-48
2022/10/13 00:37:01;;;;;;;10.20;2.85;;;;;;;7.93;100.00;101830.38;5010157;28;20702;-51
2022/10/13 00:39:27;;;;;;;6.90;2.55;;;;;;;7.88;100.00;101832.22;5001059;28;20177;-47
2022/10/13 00:41:53;;;;;;;9.52;2.80;;;;;;;7.88;100.00;101821.53;4993162;28;20209;-46
2022/10/13 00:44:56;;;;;;;12.75;2.75;;;;;;;7.89;100.00;101834.84;5010714;28;20207;-47
2022/10/13 00:47:23;;;;;;;10.38;2.72;;;;;;;7.90;100.00;101833.97;4996140;28;20598;-51
2022/10/13 00:49:49;;;;;;;10.55;3.45;;;;;;;7.88;100.00;101833.09;4995404;28;20273;-47
2022/10/13 00:52:18;;;;;;;5.95;2.63;;;;;;;7.93;100.00;101825.03;5021813;28;20227;-48
2022/10/13 00:54:44;;;;;;;9.93;2.85;;;;;;;7.95;100.00;101831.25;5016744;28;20281;-46
2022/10/13 00:57:10;;;;;;;8.45;2.65;;;;;;;7.95;100.00;101824.13;4998764;28;20198;-48
2022/10/13 00:59:38;;;;;;;8.45;3.05;;;;;;;7.90;100.00;101823.28;4998628;28;20914;-46
2022/10/13 01:02:03;;;;;;;9.32;2.83;;;;;;;7.88;100.00;101822.41;5011169;28;20304;-48
2022/10/13 01:04:44;;;;;;;9.13;3.13;;;;;;;7.83;100.00;101821.59;4994675;28;20219;-48
2022/10/13 01:07:10;;;;;;;6.63;2.75;;;;;;;7.82;100.00;101819.81;5010271;28;20191;-47
2022/10/13 01:09:41;;;;;;;10.38;2.72;;;;;;;7.82;100.00;101815.34;5013503;28;20188;-45
2022/10/13 01:12:21;;;;;;;9.32;2.90;;;;;;;7.76;100.00;101818.13;5009887;28;20349;-51
2022/10/13 01:14:55;;;;;;;10.07;2.70;;;;;;;7.77;100.00;101819.88;5008656;28;20227;-48
2022/10/13 01:17:38;;;;;;;10.80;3.28;;;;;;;7.71;100.00;101806.59;5003378;28;20174;-47
2022/10/13 01:20:31;;;;;;;10.48;2.63;;;;;;;7.69;100.00;101810.19;5006855;28;20196;-46
2022/10/13 01:23:17;;;;;;;7.57;2.78;;;;;;;7.67;100.00;101798.63;5011339;28;20212;-45
2022/10/13 01:26:11;;;;;;;8.07;2.70;;;;;;;7.69;100.00;101802.19;5003918;28;20192;-48
2022/10/13 01:29:02;;;;;;;9.88;2.55;;;;;;;7.70;100.00;101791.50;5008409;28;20234;-48
2022/10/13 01:31:45;;;;;;;8.50;2.78;;;;;;;7.73;100.00;101786.13;4997758;28;20205;-46
2022/10/13 01:34:21;;;;;;;9.85;3.35;;;;;;;7.73;100.00;101788.78;5011512;28;20180;-46
2022/10/13 01:37:04;;;;;;;9.02;3.40;;;;;;;7.77;100.00;101785.19;5022132;28;20615;-47
2022/10/13 01:39:36;;;;;;;9.05;3.40;;;;;;;7.80;100.00;101777.13;5018425;28;20188;-46
2022/10/13 01:42:12;;;;;;;15.07;3.40;;;;;;;7.83;100.00;101782.47;5007008;28;20208;-48
2022/10/13 01:44:42;;;;;;;12.13;3.28;;;;;;;7.84;100.00;101772.66;5000877;28;20187;-45
2022/10/13 01:47:10;;;;;;;13.20;3.38;;;;;;;7.87;100.00;101769.06;5016529;28;20529;-48
2022/10/13 01:49:37;;;;;;;9.25;3.00;;;;;;;7.87;100.00;101777.06;5020179;28;20231;-46
2022/10/13 01:52:11;;;;;;;8.05;3.00;;;;;;;7.87;100.00;101774.41;5026656;28;20266;-47
2022/10/13 01:54:36;;;;;;;11.40;3.47;;;;;;;7.90;100.00;101772.59;5003398;28;20232;-48
2022/10/13 01:57:02;;;;;;;14.10;2.92;;;;;;;7.91;100.00;101773.47;5013915;28;20248;-45
2022/10/13 01:59:31;;;;;;;8.85;3.05;;;;;;;7.92;100.00;101759.25;5013667;28;20189;-46
2022/10/13 02:02:03;;;;;;;10.48;2.75;;;;;;;7.91;100.00;101766.34;5002214;28;20213;-48
2022/10/13 02:05:10;;;;;;;7.05;2.80;;;;;;;7.92;100.00;101761.91;5011667;28;20191;-47
2022/10/13 02:07:53;;;;;;;8.15;2.70;;;;;;;7.93;100.00;101761.00;5001595;28;20215;-48
2022/10/13 02:10:48;;;;;;;9.35;3.05;;;;;;;7.91;100.00;101745.00;5013582;28;20200;-46
2022/10/13 02:13:17;;;;;;;7.60;3.03;;;;;;;7.87;100.00;101742.38;5007063;28;20213;-47
2022/10/13 02:15:48;;;;;;;9.95;3.00;;;;;;;7.87;100.00;101740.63;4999683;28;20535;-47
2022/10/13 02:18:17;;;;;;;9.40;3.78;;;;;;;7.78;100.00;101741.63;5005212;28;20604;-48
2022/10/13 02:20:44;;;;;;;11.65;3.15;;;;;;;7.69;100.00;101744.38;5008861;28;20247;-50
2022/10/13 02:23:13;;;;;;;8.00;2.63;;;;;;;7.71;100.00;101731.91;5018563;28;20207;-49
2022/10/13 02:25:40;;;;;;;9.13;2.70;;;;;;;7.73;100.00;101738.09;5011623;28;20207;-47
2022/10/13 02:28:06;;;;;;;8.77;2.88;;;;;;;7.66;100.00;101731.09;5018849;28;20268;-53
2022/10/13 02:30:41;;;;;;;8.15;3.15;;;;;;;7.62;100.00;101738.22;4991972;28;20286;-48
2022/10/13 02:33:08;;;;;;;7.00;3.17;;;;;;;7.57;100.00;101732.06;5004922;28;20713;-48
2022/10/13 02:35:34;;;;;;;8.23;2.90;;;;;;;7.49;100.00;101733.06;5014798;28;20675;-52
2022/10/13 02:38:01;;;;;;;9.25;3.47;;;;;;;7.39;100.00;101734.91;5024264;28;20180;-47
2022/10/13 02:40:27;;;;;;;11.65;3.20;;;;;;;7.33;100.00;101727.00;4999085;28;20187;-51
2022/10/13 02:42:52;;;;;;;9.45;3.10;;;;;;;7.30;100.00;101727.91;5024999;28;20707;-50
2022/10/13 02:45:18;;;;;;;8.95;3.58;;;;;;;7.27;100.00;101727.94;5010541;28;20184;-53
2022/10/13 02:47:43;;;;;;;10.60;3.95;;;;;;;7.29;100.00;101742.16;5005836;28;20177;-47
2022/10/13 02:50:09;;;;;;;7.47;2.65;;;;;;;7.29;100.00;101734.16;5015889;28;20202;-49
2022/10/13 02:52:35;;;;;;;14.75;3.35;;;;;;;7.21;100.00;101728.00;5019012;28;20592;-48
2022/10/13 02:55:01;;;;;;;8.40;2.92;;;;;;;7.13;100.00;101736.09;5001987;28;20180;-53
2022/10/13 02:57:26;;;;;;;8.88;2.88;;;;;;;7.00;100.00;101718.44;5010838;28;20220;-52
2022/10/13 02:59:52;;;;;;;9.45;2.90;;;;;;;6.95;100.00;101715.84;5012584;28;20613;-47
2022/10/13 03:02:18;;;;;;;8.48;3.03;;;;;;;6.87;100.00;101707.00;5004728;28;20582;-48
2022/10/13 03:04:44;;;;;;;9.65;3.60;;;;;;;6.82;100.00;101711.47;5010989;28;20180;-49
2022/10/13 03:07:09;;;;;;;12.90;3.67;;;;;;;6.83;100.00;101715.06;5000536;28;20204;-50
2022/10/13 03:09:35;;;;;;;8.55;3.08;;;;;;;6.85;100.00;101707.94;4997086;28;20222;-48
2022/10/13 03:12:00;;;;;;;5.32;3.03;;;;;;;6.88;100.00;101707.88;5012320;28;20201;-48
2022/10/13 03:14:26;;;;;;;7.57;3.00;;;;;;;6.91;100.00;101710.50;5016496;28;20203;-49
2022/10/13 03:16:51;;;;;;;11.15;3.72;;;;;;;6.88;100.00;101713.22;5011270;28;20188;-53
2022/10/13 03:19:18;;;;;;;9.90;3.40;;;;;;;6.81;100.00;101707.94;5022615;28;20176;-51
2022/10/13 03:21:44;;;;;;;10.25;3.50;;;;;;;6.86;100.00;101701.69;5004554;28;20659;-49
2022/10/13 03:24:09;;;;;;;10.15;3.53;;;;;;;6.79;100.00;101698.19;5014658;28;20180;-51
2022/10/13 03:26:35;;;;;;;9.43;3.70;;;;;;;6.78;100.00;101694.66;5004257;28;20225;-49
2022/10/13 03:29:01;;;;;;;9.93;3.70;;;;;;;6.75;100.00;101694.66;5012032;28;20191;-48
2022/10/13 03:31:27;;;;;;;9.57;4.05;;;;;;;6.79;100.00;101683.09;5010288;28;20644;-50
2022/10/13 03:34:00;;;;;;;9.38;3.70;;;;;;;6.80;100.00;101692.00;5010208;28;20235;-52
2022/10/13 03:36:26;;;;;;;8.40;3.28;;;;;;;6.84;100.00;101691.03;5013367;28;20180;-47
2022/10/13 03:38:51;;;;;;;11.60;3.97;;;;;;;6.85;100.00;101695.50;5008140;28;21116;-49
2022/10/13 03:41:18;;;;;;;12.20;3.97;;;;;;;6.89;100.00;101702.56;5015731;28;20210;-51
2022/10/13 03:43:48;;;;;;;11.98;3.90;;;;;;;6.92;100.00;101699.84;5023559;28;20225;-49
2022/10/13 03:46:16;;;;;;;9.55;3.55;;;;;;;6.94;100.00;101697.19;5027926;28;20227;-48
2022/10/13 03:48:44;;;;;;;10.50;3.90;;;;;;;7.00;100.00;101683.81;5011879;28;20180;-47
2022/10/13 03:51:13;;;;;;;13.48;3.55;;;;;;;7.05;100.00;101683.75;5006923;28;20730;-52
2022/10/13 03:53:43;;;;;;;7.50;3.58;;;;;;;7.07;100.00;101684.63;5005552;28;20219;-50
2022/10/13 03:56:13;;;;;;;10.18;3.88;;;;;;;7.09;100.00;101675.72;5004816;28;20554;-52
2022/10/13 03:58:43;;;;;;;6.97;3.60;;;;;;;7.14;100.00;101684.53;5018265;28;20335;-47
2022/10/13 04:01:11;;;;;;;7.68;3.85;;;;;;;7.20;100.00;101683.59;5015149;28;20212;-47
2022/10/13 04:03:40;;;;;;;7.90;3.47;;;;;;;7.20;100.00;101668.50;4998228;28;20196;-48
2022/10/13 04:06:05;;;;;;;12.90;3.83;;;;;;;7.26;100.00;101672.88;5002345;28;20199;-51
2022/10/13 04:08:33;;;;;;;10.55;3.63;;;;;;;7.32;100.00;101683.47;5006271;28;20185;-48
2022/10/13 04:11:00;;;;;;;14.07;3.83;;;;;;;7.31;100.00;101675.50;5011672;28;20218;-51
2022/10/13 04:13:26;;;;;;;6.93;3.60;;;;;;;7.32;100.00;101675.47;5009585;28;20212;-50
2022/10/13 04:15:52;;;;;;;15.52;4.00;;;;;;;7.32;100.00;101685.25;5010043;28;20188;-49
2022/10/13 04:18:17;;;;;;;12.45;4.15;;;;;;;7.36;100.00;101679.84;5002292;28;20244;-47
2022/10/13 04:20:42;;;;;;;10.30;4.13;;;;;;;7.32;100.00;101680.78;5006037;28;20189;-47
2022/10/13 04:23:08;;;;;;;11.88;4.13;;;;;;;7.31;100.00;101664.84;5007893;28;20620;-48
2022/10/13 04:25:38;;;;;;;8.80;4.32;;;;;;;7.35;100.00;101664.78;5011482;28;20667;-49
2022/10/13 04:28:05;;;;;;;8.05;3.95;;;;;;;7.29;100.00;101678.16;5010788;28;20219;-49
2022/10/13 04:30:34;;;;;;;12.27;3.70;;;;;;;7.36;100.00;101674.53;5012132;28;20197;-48
2022/10/13 04:32:59;;;;;;;13.45;4.45;;;;;;;7.33;100.00;101674.56;5002940;28;20208;-48
2022/10/13 04:35:25;;;;;;;14.68;4.75;;;;;;;7.31;100.00;101678.16;5007186;28;20188;-48
2022/10/13 04:37:50;;;;;;;8.68;4.18;;;;;;;7.36;100.00;101679.84;5008272;28;20176;-47
2022/10/13 04:40:16;;;;;;;9.95;4.75;;;;;;;7.42;100.00;101673.59;5010071;28;20206;-47
2022/10/13 04:42:41;;;;;;;12.27;3.72;;;;;;;7.36;100.00;101677.19;5012554;28;20687;-46
2022/10/13 04:45:07;;;;;;;9.75;4.72;;;;;;;7.32;100.00;101672.78;5014737;28;20191;-49
2022/10/13 04:47:34;;;;;;;11.00;3.78;;;;;;;7.35;100.00;101662.13;5008805;28;20180;-49
2022/10/13 04:49:59;;;;;;;15.32;4.82;;;;;;;7.32;100.00;101658.59;5008560;28;20513;-49
2022/10/13 04:52:25;;;;;;;11.90;4.13;;;;;;;7.41;100.00;101662.03;5006327;28;20209;-46
2022/10/13 04:54:52;;;;;;;10.32;4.28;;;;;;;7.39;100.00;101649.63;5013123;28;20183;-50
2022/10/13 04:57:18;;;;;;;15.32;4.03;;;;;;;7.36;100.00;101652.31;5015670;28;20651;-51
2022/10/13 04:59:44;;;;;;;11.93;4.70;;;;;;;7.39;100.00;101650.53;5017564;28;20592;-50
2022/10/13 05:02:09;;;;;;;6.53;3.92;;;;;;;7.32;100.00;101656.81;5012510;28;20200;-48
2022/10/13 05:04:35;;;;;;;7.20;4.15;;;;;;;7.32;100.00;101647.94;5004520;28;20189;-49
2022/10/13 05:07:00;;;;;;;12.48;4.30;;;;;;;7.32;100.00;101646.13;5009939;28;20192;-48
2022/10/13 05:09:26;;;;;;;13.50;5.05;;;;;;;7.35;100.00;101639.91;5016053;28;20180;-50
2022/10/13 05:11:53;;;;;;;11.73;4.60;;;;;;;7.34;100.00;101644.34;5018741;28;20212;-49
2022/10/13 05:14:20;;;;;;;12.80;5.15;;;;;;;7.25;100.00;101647.13;5015313;28;20697;-47
2022/10/13 05:16:46;;;;;;;8.35;4.40;;;;;;;7.27;100.00;101642.66;5001974;28;20187;-51
2022/10/13 05:19:14;;;;;;;8.48;4.32;;;;;;;7.32;100.00;101645.25;5000955;28;20272;-48
2022/10/13 05:21:40;;;;;;;12.27;4.72;;;;;;;7.28;100.00;101641.78;5007198;28;20200;-46
2022/10/13 05:24:07;;;;;;;13.13;5.03;;;;;;;7.28;100.00;101631.09;5019821;28;20659;-47
2022/10/13 05:26:34;;;;;;;11.48;4.55;;;;;;;7.33;100.00;101633.72;5022266;28;20187;-52
2022/10/13 05:29:01;;;;;;;16.98;5.85;;;;;;;7.25;100.00;101641.78;5013343;28;20189;-48
2022/10/13 05:31:30;;;;;;;10.65;5.10;;;;;;;7.25;100.00;101647.13;5002828;28;20215;-50
2022/10/13 05:33:56;;;;;;;8.82;4.88;;;;;;;7.26;100.00;101640.91;5003624;28;20553;-48
2022/10/13 05:36:24;;;;;;;8.63;4.95;;;;;;;7.23;100.00;101646.25;5010530;28;20198;-48
2022/10/13 05:38:51;;;;;;;13.32;5.28;;;;;;;7.22;100.00;101649.81;5019834;28;20188;-46
2022/10/13 05:41:18;;;;;;;12.55;5.38;;;;;;;7.22;100.00;101644.50;5017524;28;20189;-52
2022/10/13 05:43:43;;;;;;;13.45;5.55;;;;;;;7.20;100.00;101647.16;5009363;28;20209;-51
2022/10/13 05:46:09;;;;;;;10.35;5.45;;;;;;;7.26;100.00;101646.22;5004273;28;20277;-46
2022/10/13 05:48:35;;;;;;;10.50;5.07;;;;;;;7.31;100.00;101632.84;5007748;28;20188;-46
2022/10/13 05:51:05;;;;;;;14.07;5.85;;;;;;;7.25;100.00;101644.44;5013003;28;20419;-46
2022/10/13 05:53:35;;;;;;;10.85;5.88;;;;;;;7.26;100.00;101629.34;5015518;28;20209;-49
2022/10/13 05:56:07;;;;;;;14.75;6.22;;;;;;;7.29;100.00;101635.53;5010881;28;20241;-48
2022/10/13 05:58:37;;;;;;;10.30;5.47;;;;;;;7.34;100.00;101627.47;5009015;28;20182;-49
2022/10/13 06:01:09;;;;;;;12.57;6.32;;;;;;;7.31;100.00;101632.84;5009129;28;20489;-49
2022/10/13 06:03:35;;;;;;;20.70;6.18;;;;;;;7.33;100.00;101615.94;5011177;28;20213;-49
2022/10/13 06:06:00;;;;;;;20.15;6.72;;;;;;;7.37;100.00;101622.13;5014716;28;20189;-48
2022/10/13 06:08:26;;;;;;;15.95;6.63;;;;;;;7.42;100.00;101615.81;5009157;28;20248;-47
2022/10/13 06:10:51;;;;;;;14.98;6.70;;;;;;;7.50;100.00;101628.16;5010426;28;20244;-48
2022/10/13 06:13:18;;;;;;;13.68;6.55;;;;;;;7.51;100.00;101632.59;5011326;28;20207;-49
2022/10/13 06:15:43;;;;;;;13.82;7.28;;;;;;;7.54;100.00;101608.56;5008050;28;20781;-48
2022/10/13 06:18:09;;;;;;;11.23;6.78;;;;;;;7.63;100.00;101612.00;5010988;28;20252;-49
2022/10/13 06:20:35;;;;;;;10.73;7.03;;;;;;;7.62;100.00;101610.22;5011147;28;20235;-50
2022/10/13 06:23:00;;;;;;;19.38;8.05;;;;;;;7.68;100.00;101605.72;5011280;28;20219;-50
2022/10/13 06:25:27;;;;;;;11.65;6.90;;;;;;;7.69;100.00;101597.66;5015116;28;20206;-50
2022/10/13 06:27:53;;;;;;;16.55;7.53;;;;;;;7.74;100.00;101593.19;5013050;28;20205;-48
2022/10/13 06:30:18;;;;;;;14.52;7.22;;;;;;;7.78;100.00;101599.34;5007042;28;20197;-49
2022/10/13 06:32:44;;;;;;;18.17;7.93;;;;;;;7.83;100.00;101597.50;5006801;28;20208;-48
2022/10/13 06:35:09;;;;;;;13.90;7.05;;;;;;;7.88;100.00;101603.63;5013464;28;20281;-50
2022/10/13 06:37:35;;;;;;;14.75;7.22;;;;;;;7.92;100.00;101602.69;5012188;28;20951;-49
2022/10/13 06:40:01;;;;;;;18.45;7.75;;;;;;;7.98;100.00;101604.38;5011923;28;20180;-49
2022/10/13 06:42:29;;;;;;;16.80;7.03;;;;;;;8.03;100.00;101608.75;5017886;28;20208;-48
2022/10/13 06:45:07;;;;;;;15.80;8.07;;;;;;;8.04;100.00;101593.59;5011986;28;20216;-48
2022/10/13 06:47:33;;;;;;;18.88;8.48;;;;;;;8.10;100.00;101590.84;5009808;28;20185;-49
2022/10/13 06:49:58;;;;;;;15.05;7.28;;;;;;;8.17;100.00;101580.94;5013028;28;20190;-49
2022/10/13 06:52:24;;;;;;;15.98;7.93;;;;;;;8.22;100.00;101589.75;5014776;28;20648;-47
2022/10/13 06:54:49;;;;;;;14.32;7.70;;;;;;;8.27;100.00;101597.72;5016353;28;20659;-49
2022/10/13 06:57:15;;;;;;;12.70;7.60;;;;;;;8.30;100.00;101595.00;4997997;28;20211;-46
2022/10/13 06:59:40;;;;;;;18.38;8.02;;;;;;;8.34;100.00;101586.03;4991301;28;20186;-48
2022/10/13 07:02:07;;;;;;;18.13;8.70;;;;;;;8.36;100.00;101578.88;4991563;28;20216;-45
2022/10/13 07:04:33;;;;;;;14.20;7.75;;;;;;;8.37;100.00;101591.31;4992752;28;20226;-49
2022/10/13 07:06:59;;;;;;;16.15;7.78;;;;;;;8.39;100.00;101581.47;4992652;28;20185;-49
2022/10/13 07:09:24;;;;;;;19.95;8.30;;;;;;;8.43;100.00;101585.91;5020623;28;20577;-45
2022/10/13 07:11:50;;;;;;;18.77;8.07;;;;;;;8.52;100.00;101580.38;5032014;28;20721;-47
2022/10/13 07:14:15;;;;;;;16.88;8.90;;;;;;;8.49;100.00;101571.56;5031897;28;20164;-48
2022/10/13 07:16:40;;;;;;;13.05;7.80;;;;;;;8.52;100.00;101585.72;5030265;28;20179;-50
2022/10/13 07:19:06;;;;;;;12.77;7.95;;;;;;;8.56;100.00;101578.56;5012278;28;20219;-45
2022/10/13 07:21:32;;;;;;;15.77;8.05;;;;;;;8.54;100.00;101583.91;5011814;28;20181;-46
2022/10/13 07:23:58;;;;;;;18.33;8.68;;;;;;;8.53;100.00;101581.28;5012080;28;20157;-46
2022/10/13 07:26:23;;;;;;;14.25;7.68;;;;;;;8.62;100.00;101591.81;5012097;28;20176;-47
2022/10/13 07:28:49;;;;;;;15.60;8.82;;;;;;;8.73;100.00;101586.28;5012053;28;20189;-46
2022/10/13 07:31:18;;;;;;;17.20;8.90;;;;;;;8.85;100.00;101581.59;4995900;28;20288;-45
2022/10/13 07:33:46;;;;;;;22.33;9.73;;;;;;;8.89;100.00;101579.72;4991300;28;20684;-49
2022/10/13 07:36:15;;;;;;;18.05;8.82;;;;;;;9.00;100.00;101576.84;4992559;28;20227;-47
2022/10/13 07:38:40;;;;;;;20.85;9.05;;;;;;;9.12;100.00;101573.94;5006836;28;20187;-45
2022/10/13 07:41:08;;;;;;;17.75;9.18;;;;;;;9.29;100.00;101581.56;5021895;28;20195;-51
2022/10/13 07:43:34;;;;;;;15.70;8.80;;;;;;;9.49;100.00;101567.81;5008838;28;20255;-50
2022/10/13 07:46:03;;;;;;;20.02;9.45;;;;;;;9.82;99.83;101576.88;5012798;28;20185;-44
2022/10/13 07:48:30;;;;;;;17.40;9.35;;;;;;;9.76;99.00;101578.81;5010378;28;20323;-45
2022/10/13 07:51:02;;;;;;;19.38;9.77;;;;;;;9.74;98.43;101568.13;5012618;28;20216;-47
2022/10/13 07:53:28;;;;;;;17.88;8.73;;;;;;;9.83;98.03;101577.75;4998048;28;20566;-46
2022/10/13 07:55:53;;;;;;;13.77;8.90;;;;;;;9.89;97.44;101573.13;5004067;28;20185;-46
2022/10/13 07:58:19;;;;;;;17.45;9.25;;;;;;;9.79;97.12;101562.66;5019264;28;20184;-45
2022/10/13 08:00:44;;;;;;;17.20;9.75;;;;;;;9.72;97.25;101558.38;5009527;28;20192;-44
2022/10/13 08:03:10;;;;;;;20.25;9.68;;;;;;;9.70;97.43;101559.28;5000857;28;20209;-46
2022/10/13 08:05:37;;;;;;;23.20;10.23;;;;;;;9.72;97.25;101566.41;5012633;28;20728;-46
2022/10/13 08:08:03;;;;;;;17.60;8.90;;;;;;;9.76;97.48;101568.09;5009125;28;20236;-45
2022/10/13 08:10:28;;;;;;;21.48;9.30;;;;;;;9.72;97.48;101564.59;5008470;28;20568;-45
2022/10/13 08:12:54;;;;;;;16.48;9.80;;;;;;;9.69;97.35;101560.19;5011397;28;20204;-43
2022/10/13 08:15:19;;;;;;;19.25;8.90;;;;;;;9.68;97.41;101552.19;5006558;28;20187;-45
2022/10/13 08:17:45;;;;;;;25.33;9.60;;;;;;;9.80;97.79;101553.72;5007561;28;20315;-47
2022/10/13 08:20:11;;;;;;;19.88;8.75;;;;;;;9.88;97.81;101541.94;5012815;28;20202;-48
2022/10/13 08:22:36;;;;;;;19.90;10.18;;;;;;;9.89;97.74;101537.44;5009977;28;20612;-45
2022/10/13 08:25:02;;;;;;;15.13;9.18;;;;;;;10.01;97.56;101544.28;5002093;28;20238;-46
2022/10/13 08:27:28;;;;;;;18.88;10.07;;;;;;;9.92;97.53;101532.00;5005915;28;20252;-45
2022/10/13 08:29:54;;;;;;;18.90;9.93;;;;;;;9.96;97.53;101530.16;5007638;28;20190;-45
2022/10/13 08:32:20;;;;;;;19.60;9.75;;;;;;;10.00;97.57;101537.19;5007402;28;20294;-46
2022/10/13 08:34:47;;;;;;;22.02;9.90;;;;;;;9.89;97.23;101530.28;5010223;28;20224;-46
2022/10/13 08:37:15;;;;;;;17.50;10.25;;;;;;;9.88;97.78;101533.91;5009355;28;20290;-47
2022/10/13 08:39:40;;;;;;;19.20;10.93;;;;;;;9.90;97.81;101528.50;5006250;28;20703;-47
2022/10/13 08:42:18;;;;;;;22.13;11.07;;;;;;;9.93;97.82;101533.78;5001528;28;20213;-48
2022/10/13 08:44:55;;;;;;;20.00;10.50;;;;;;;10.06;97.92;101537.91;5002348;28;20315;-45
2022/10/13 08:47:26;;;;;;;19.98;10.50;;;;;;;10.16;97.95;101530.53;5011281;28;20189;-47
2022/10/13 08:49:58;;;;;;;15.40;10.90;;;;;;;10.13;97.75;101538.66;5008188;28;20188;-45
2022/10/13 08:52:26;;;;;;;22.38;11.15;;;;;;;10.20;97.84;101534.00;5000041;28;20205;-46
2022/10/13 08:54:53;;;;;;;18.20;9.75;;;;;;;10.34;97.80;101525.66;5012585;28;20188;-47
2022/10/13 08:57:20;;;;;;;20.35;10.77;;;;;;;10.43;97.73;101525.41;5010179;28;20654;-45
2022/10/13 08:59:46;;;;;;;14.40;9.80;;;;;;;10.62;97.51;101529.34;5005726;28;20973;-45
2022/10/13 09:02:21;;;;;;;19.38;10.68;;;;;;;10.64;97.19;101537.34;5011127;28;20296;-46
2022/10/13 09:04:51;;;;;;;19.38;11.20;;;;;;;10.60;96.80;101533.88;5005555;28;20288;-44
2022/10/13 09:07:25;;;;;;;19.63;11.52;;;;;;;10.54;96.55;101542.09;5004956;28;20203;-45
2022/10/13 09:09:52;;;;;;;19.40;10.85;;;;;;;10.52;96.90;101539.44;5017910;28;20845;-45
2022/10/13 09:12:25;;;;;;;19.92;11.63;;;;;;;10.50;96.52;101533.25;5007818;28;20704;-46
2022/10/13 09:15:01;;;;;;;20.60;11.48;;;;;;;10.56;96.32;101531.31;5006323;28;20192;-45
2022/10/13 09:17:28;;;;;;;18.27;10.10;;;;;;;10.52;96.30;101523.38;5006828;28;20164;-45
2022/10/13 09:19:59;;;;;;;21.23;11.48;;;;;;;10.48;96.00;101526.19;5009188;28;20200;-46
2022/10/13 09:22:31;;;;;;;22.52;11.15;;;;;;;10.45;96.11;101508.38;5015862;28;20630;-46
2022/10/13 09:25:05;;;;;;;23.52;10.88;;;;;;;10.52;96.06;101515.34;5013289;28;20659;-45
2022/10/13 09:27:59;;;;;;;20.48;10.95;;;;;;;10.58;96.00;101516.06;5008221;28;20192;-45
2022/10/13 09:30:37;;;;;;;20.40;10.40;;;;;;;10.51;95.90;101518.03;5002918;28;20263;-45
2022/10/13 09:33:12;;;;;;;21.08;11.05;;;;;;;10.56;96.12;101512.56;5011211;28;20570;-45
2022/10/13 09:35:39;;;;;;;21.02;10.60;;;;;;;10.60;96.04;101514.25;5015171;28;20212;-44
2022/10/13 09:38:10;;;;;;;20.33;10.35;;;;;;;10.59;96.16;101507.13;5015854;28;20193;-44
2022/10/13 09:40:35;;;;;;;21.30;10.68;;;;;;;10.66;96.40;101511.41;5001224;28;20185;-45
2022/10/13 09:43:05;;;;;;;21.40;10.88;;;;;;;10.70;96.41;101511.25;4997970;28;20220;-44
2022/10/13 09:45:31;;;;;;;22.75;10.10;;;;;;;10.81;96.51;101515.47;5004159;28;20176;-46
2022/10/13 09:48:06;;;;;;;17.83;10.43;;;;;;;10.85;96.03;101509.09;5010673;28;20203;-45
2022/10/13 09:50:34;;;;;;;19.00;10.90;;;;;;;10.81;95.98;101508.28;5014939;28;20216;-43
2022/10/13 09:53:17;;;;;;;16.85;10.60;;;;;;;10.89;95.84;101516.13;5008087;28;20215;-45
2022/10/13 09:55:47;;;;;;;21.25;10.98;;;;;;;10.92;95.46;101513.34;5004332;28;20220;-44
2022/10/13 09:58:25;;;;;;;17.88;10.90;;;;;;;10.96;95.39;101503.41;5002483;28;20176;-44
2022/10/13 10:00:53;;;;;;;19.15;10.60;;;;;;;11.02;95.09;101509.47;5005878;28;20319;-45
2022/10/13 10:03:31;;;;;;;16.92;10.52;;;;;;;10.85;94.71;101501.91;5007243;28;20210;-50
2022/10/13 10:06:00;;;;;;;17.05;10.32;;;;;;;10.90;94.80;101501.78;5011976;28;20314;-47
2022/10/13 10:08:59;;;;;;;21.80;10.93;;;;;;;10.97;95.11;101492.63;5015319;28;20198;-48
2022/10/13 10:11:31;;;;;;;16.38;9.93;;;;;;;11.05;95.35;101477.19;5008874;28;20302;-50
2022/10/13 10:13:59;;;;;;;19.00;10.48;;;;;;;11.09;95.35;101478.00;5012565;28;20270;-45
2022/10/13 10:16:37;;;;;;;25.15;11.35;;;;;;;11.08;95.16;101486.94;5014003;28;20196;-47
2022/10/13 10:19:13;;;;;;;15.45;10.13;;;;;;;11.13;95.21;101474.31;5010112;28;20576;-48
2022/10/13 10:22:05;;;;;;;19.00;10.80;;;;;;;11.27;95.45;101481.91;5015761;28;20227;-49
2022/10/13 10:24:36;;;;;;;21.98;10.60;;;;;;;11.30;95.39;101487.19;5013129;28;20257;-47
2022/10/13 10:27:14;;;;;;;15.35;10.52;;;;;;;11.31;95.45;101488.97;5009724;28;20550;-47
2022/10/13 10:29:46;;;;;;;19.75;11.02;;;;;;;11.30;95.69;101484.50;5012342;28;20655;-49
2022/10/13 10:32:23;;;;;;;20.98;11.23;;;;;;;11.26;96.15;101477.47;5011191;28;20223;-47
2022/10/13 10:34:58;;;;;;;20.48;11.68;;;;;;;11.20;96.72;101478.56;5012873;28;20620;-47
2022/10/13 10:37:45;;;;;;;24.38;12.88;;;;;;;11.13;97.22;101479.66;5017441;28;20320;-52
2022/10/13 10:40:14;;;;;;;19.40;12.38;;;;;;;11.13;97.94;101477.00;5016351;28;20294;-48
2022/10/13 10:42:48;;;;;;;24.13;12.20;;;;;;;11.09;98.37;101484.22;5006259;28;20217;-48
2022/10/13 10:45:29;;;;;;;24.00;12.68;;;;;;;11.13;98.69;101483.22;5011729;28;20192;-47
2022/10/13 10:48:17;;;;;;;21.23;11.52;;;;;;;11.14;99.08;101476.91;5018963;28;20195;-51
2022/10/13 10:50:42;;;;;;;21.30;11.68;;;;;;;11.14;99.20;101473.38;5019526;28;20235;-49
2022/10/13 10:53:22;;;;;;;18.55;12.30;;;;;;;11.19;99.54;101467.84;5017692;28;20330;-47
2022/10/13 10:56:06;;;;;;;21.88;11.50;;;;;;;11.16;99.75;101466.16;5004909;28;20197;-51
2022/10/13 10:58:49;;;;;;;22.20;13.07;;;;;;;11.19;99.57;101470.53;5002611;28;20185;-50
2022/10/13 11:01:31;;;;;;;27.95;11.70;;;;;;;11.30;99.43;101468.41;5013540;28;20271;-47
2022/10/13 11:04:41;;;;;;;23.73;12.30;;;;;;;11.33;99.29;101460.28;5017080;28;20734;-48
2022/10/13 11:07:33;;;;;;;23.95;12.23;;;;;;;11.49;99.37;101458.84;5017475;28;20213;-48
2022/10/13 11:09:58;;;;;;;23.25;12.52;;;;;;;11.57;99.10;101460.41;5000225;28;20605;-47
2022/10/13 11:12:25;;;;;;;19.73;12.52;;;;;;;11.53;98.71;101455.16;5001425;28;20205;-51
2022/10/13 11:14:53;;;;;;;21.52;12.25;;;;;;;11.59;98.27;101451.41;5008509;28;20193;-48
2022/10/13 11:17:35;;;;;;;22.40;12.02;;;;;;;11.64;98.34;101456.63;5016762;28;20228;-47
2022/10/13 11:20:21;;;;;;;24.60;12.90;;;;;;;11.79;98.65;101456.09;5015683;28;20252;-46
2022/10/13 11:23:06;;;;;;;24.70;12.57;;;;;;;11.78;98.74;101448.97;5004123;28;20244;-52
2022/10/13 11:25:46;;;;;;;18.67;12.35;;;;;;;11.89;98.85;101451.31;4993750;28;20200;-49
2022/10/13 11:28:21;;;;;;;19.70;12.18;;;;;;;11.76;99.26;101448.13;5006775;28;20646;-48